Time;durP1;ratioP1;P1;durP2;ratioP2;P2;SDS_P1;SDS_P2;PMS_P1;PMS_P2;Temp;Humidity;BMP_temperature;BMP_pressure;BME280_temperature;BME280_humidity;BME280_pressure;Samples;Min_cycle;Max_cycle;Signal;HPM_P1;HPM_P2
2023/09/16 00:02:22;;;;;;;5.93;3.65;;;;;;;23.43;49.23;101341.22;4997216;28;20048;-63
2023/09/16 00:04:48;;;;;;;5.88;3.30;;;;;;;23.44;49.37;101342.06;4997278;28;20030;-62
2023/09/16 00:07:14;;;;;;;5.70;3.55;;;;;;;23.44;49.65;101342.06;4997127;28;20033;-62
2023/09/16 00:09:40;;;;;;;5.13;3.10;;;;;;;23.42;49.31;101336.06;4997410;28;20394;-64
2023/09/16 00:12:05;;;;;;;6.05;3.30;;;;;;;23.42;49.12;101339.53;4997468;28;20034;-62
2023/09/16 00:14:31;;;;;;;5.47;3.45;;;;;;;23.42;49.26;101336.88;4997171;28;20041;-62
2023/09/16 00:16:58;;;;;;;7.55;3.30;;;;;;;23.42;49.57;101344.84;4996892;28;20044;-62
2023/09/16 00:19:24;;;;;;;5.68;3.00;;;;;;;23.41;49.59;101347.66;4996610;28;20401;-62
2023/09/16 00:21:49;;;;;;;5.18;3.10;;;;;;;23.41;49.06;101358.31;4997276;28;20035;-62
2023/09/16 00:24:14;;;;;;;6.65;3.50;;;;;;;23.41;48.92;101366.28;4997089;28;20031;-63
2023/09/16 00:26:40;;;;;;;5.75;3.40;;;;;;;23.41;49.17;101359.13;4997084;28;20029;-62
2023/09/16 00:29:06;;;;;;;5.50;3.30;;;;;;;23.40;49.12;101360.13;4996590;28;20049;-62
2023/09/16 00:31:33;;;;;;;4.70;3.03;;;;;;;23.39;49.32;101358.44;4996994;28;20497;-64
2023/09/16 00:33:58;;;;;;;5.57;3.25;;;;;;;23.35;48.83;101352.59;4997017;28;20541;-62
2023/09/16 00:36:24;;;;;;;5.28;3.47;;;;;;;23.37;49.33;101355.09;4996404;28;20034;-62
2023/09/16 00:38:49;;;;;;;6.65;3.35;;;;;;;23.39;48.89;101357.63;4996798;28;20037;-62
2023/09/16 00:41:15;;;;;;;5.25;3.13;;;;;;;23.38;48.97;101345.28;4996811;28;20065;-62
2023/09/16 00:43:40;;;;;;;5.20;2.90;;;;;;;23.38;48.97;101343.47;4997062;28;20121;-62
2023/09/16 00:46:06;;;;;;;5.30;3.30;;;;;;;23.37;49.33;101339.16;4996090;28;20095;-63
2023/09/16 00:48:32;;;;;;;4.90;3.28;;;;;;;23.37;48.82;101344.47;4997039;28;20041;-61
2023/09/16 00:50:57;;;;;;;6.68;3.55;;;;;;;23.36;48.89;101340.13;4996769;28;20069;-61
2023/09/16 00:53:23;;;;;;;6.00;3.53;;;;;;;23.35;49.17;101333.13;4996455;28;20463;-62
2023/09/16 00:55:49;;;;;;;6.13;3.67;;;;;;;23.35;48.83;101331.31;4996002;28;20076;-61
2023/09/16 00:58:17;;;;;;;4.88;3.08;;;;;;;23.34;49.25;101326.16;4996888;28;20046;-61
2023/09/16 01:00:46;;;;;;;5.13;2.97;;;;;;;23.34;48.77;101320.81;4996635;28;20034;-62
2023/09/16 01:03:14;;;;;;;5.22;3.25;;;;;;;23.33;48.83;101322.63;4996915;28;20042;-62
2023/09/16 01:05:39;;;;;;;5.70;3.63;;;;;;;23.32;49.25;101313.00;4997494;28;20109;-61
2023/09/16 01:08:05;;;;;;;4.90;3.55;;;;;;;23.32;49.12;101325.44;4995563;28;20165;-63
2023/09/16 01:10:30;;;;;;;6.05;3.20;;;;;;;23.31;49.16;101311.31;4996570;28;20044;-63
2023/09/16 01:12:57;;;;;;;5.50;3.50;;;;;;;23.34;49.05;101318.16;4996467;28;20041;-63
2023/09/16 01:15:27;;;;;;;6.70;3.60;;;;;;;23.30;48.72;101312.28;4996534;28;20038;-62
2023/09/16 01:18:05;;;;;;;5.80;3.50;;;;;;;23.30;49.19;101322.09;4996261;28;20044;-62
2023/09/16 01:20:32;;;;;;;6.97;3.58;;;;;;;23.30;49.11;101314.94;4996332;28;20035;-63
2023/09/16 01:22:58;;;;;;;5.88;3.25;;;;;;;23.28;48.94;101314.25;4996273;28;20501;-62
2023/09/16 01:25:28;;;;;;;5.22;3.17;;;;;;;23.30;49.04;101319.44;4996550;28;20023;-62
2023/09/16 01:27:54;;;;;;;4.97;3.25;;;;;;;23.30;48.80;101314.13;4996577;28;20030;-63
2023/09/16 01:30:20;;;;;;;5.57;3.28;;;;;;;23.29;48.98;101312.44;4998833;28;20088;-61
2023/09/16 01:33:02;;;;;;;5.45;3.20;;;;;;;23.29;49.30;101318.59;4999816;28;20112;-64
2023/09/16 01:35:32;;;;;;;5.65;3.50;;;;;;;23.29;48.87;101318.59;5000428;28;20501;-63
2023/09/16 01:37:59;;;;;;;4.78;3.22;;;;;;;23.28;49.07;101316.91;4999561;28;20124;-62
2023/09/16 01:40:27;;;;;;;5.85;3.20;;;;;;;23.29;48.79;101321.28;4999996;28;20066;-61
2023/09/16 01:42:53;;;;;;;5.90;3.20;;;;;;;23.29;49.24;101315.94;5000090;28;20077;-61
2023/09/16 01:45:18;;;;;;;4.93;3.20;;;;;;;23.27;48.97;101311.75;4999722;28;20079;-62
2023/09/16 01:47:45;;;;;;;5.30;3.30;;;;;;;23.27;49.25;101312.56;4999440;28;20511;-62
2023/09/16 01:50:10;;;;;;;6.65;3.47;;;;;;;23.26;48.83;101308.25;5000114;28;20114;-62
2023/09/16 01:52:36;;;;;;;4.93;3.15;;;;;;;23.26;48.50;101307.44;4999712;28;20121;-63
2023/09/16 01:55:01;;;;;;;5.40;3.15;;;;;;;23.26;48.70;101302.94;4999668;28;20026;-63
2023/09/16 01:57:26;;;;;;;5.80;3.95;;;;;;;23.26;49.06;101308.25;4999353;28;20045;-61
2023/09/16 01:59:52;;;;;;;7.25;4.88;;;;;;;23.24;48.82;101302.25;4999776;28;20128;-63
2023/09/16 02:02:18;;;;;;;6.65;4.45;;;;;;;23.25;48.91;101305.75;5014876;28;20449;-62
2023/09/16 02:04:44;;;;;;;7.10;3.88;;;;;;;23.25;48.91;101303.09;4999487;28;20033;-62
2023/09/16 02:07:10;;;;;;;4.90;3.30;;;;;;;23.25;48.89;101303.09;4999107;28;20038;-63
2023/09/16 02:09:36;;;;;;;5.80;3.70;;;;;;;23.25;48.46;101297.78;4999247;28;20030;-62
2023/09/16 02:12:01;;;;;;;5.82;3.80;;;;;;;23.23;48.77;101295.25;4999224;28;20390;-62
2023/09/16 02:14:26;;;;;;;6.57;3.60;;;;;;;23.24;48.51;101298.75;4999628;28;20022;-62
2023/09/16 02:16:52;;;;;;;5.97;3.78;;;;;;;23.23;48.80;101299.75;5014172;28;20034;-62
2023/09/16 02:19:17;;;;;;;5.72;3.88;;;;;;;23.23;49.06;101299.75;4999305;28;20097;-64
2023/09/16 02:21:42;;;;;;;6.78;3.30;;;;;;;23.22;48.52;101300.72;4998146;28;20026;-63
2023/09/16 02:24:08;;;;;;;5.95;3.78;;;;;;;23.21;48.58;101297.25;4999601;28;20564;-63
2023/09/16 02:26:33;;;;;;;6.68;3.85;;;;;;;23.20;48.57;101306.19;4999174;28;20026;-63
2023/09/16 02:28:58;;;;;;;6.68;3.80;;;;;;;23.22;48.90;101304.22;4999349;28;20088;-64
2023/09/16 02:31:26;;;;;;;5.82;3.75;;;;;;;23.19;48.49;101304.50;4998059;28;20061;-61
2023/09/16 02:33:58;;;;;;;5.97;3.60;;;;;;;23.19;48.91;101301.84;4998954;28;20038;-62
2023/09/16 02:36:24;;;;;;;5.53;3.80;;;;;;;23.21;48.81;101297.25;4999187;28;20030;-65
2023/09/16 02:38:49;;;;;;;5.80;3.90;;;;;;;23.19;48.65;101291.22;4999757;28;20064;-63
2023/09/16 02:41:17;;;;;;;6.38;4.13;;;;;;;23.22;48.45;101295.41;4998783;28;20034;-64
2023/09/16 02:43:43;;;;;;;6.63;3.63;;;;;;;23.20;48.46;101300.03;4998276;28;20462;-62
2023/09/16 02:46:08;;;;;;;6.90;3.80;;;;;;;23.17;48.37;101299.34;4998765;28;20027;-63
2023/09/16 02:48:34;;;;;;;6.65;4.15;;;;;;;23.18;48.60;101311.66;5014018;28;20066;-62
2023/09/16 02:50:59;;;;;;;7.25;4.35;;;;;;;23.17;48.59;101306.47;4998498;28;20045;-63
2023/09/16 02:53:25;;;;;;;6.63;3.88;;;;;;;23.18;48.71;101303.69;4998693;28;20042;-63
2023/09/16 02:55:50;;;;;;;6.55;4.05;;;;;;;23.17;48.48;101294.00;4998546;28;20100;-63
2023/09/16 02:58:16;;;;;;;6.50;4.00;;;;;;;23.17;48.69;101296.69;4998400;28;20472;-62
2023/09/16 03:00:44;;;;;;;6.68;4.40;;;;;;;23.15;48.73;101288.03;4998415;28;20290;-64
2023/09/16 03:03:09;;;;;;;6.53;4.03;;;;;;;23.16;48.67;101295.03;4998742;28;20084;-62
2023/09/16 03:05:34;;;;;;;6.60;4.40;;;;;;;23.16;48.22;101287.03;4998593;28;20038;-63
2023/09/16 03:08:00;;;;;;;5.93;3.97;;;;;;;23.17;48.25;101282.56;4998779;28;20399;-63
2023/09/16 03:10:25;;;;;;;6.13;4.03;;;;;;;23.15;48.71;101284.53;4998501;28;20463;-63
2023/09/16 03:12:50;;;;;;;6.10;4.10;;;;;;;23.15;48.27;101287.19;4998387;28;20294;-63
2023/09/16 03:15:15;;;;;;;6.32;3.95;;;;;;;23.16;48.68;101288.84;4997117;28;20743;-62
2023/09/16 03:17:41;;;;;;;7.25;4.70;;;;;;;23.16;48.63;101284.38;4998458;28;20030;-63
2023/09/16 03:20:07;;;;;;;6.53;4.13;;;;;;;23.15;48.69;101279.22;4998729;28;20034;-62
2023/09/16 03:22:32;;;;;;;5.55;4.10;;;;;;;23.15;48.58;101293.34;4998163;28;20748;-63
2023/09/16 03:24:58;;;;;;;5.90;4.17;;;;;;;23.14;48.23;101282.84;4998532;28;20081;-63
2023/09/16 03:27:23;;;;;;;6.53;4.13;;;;;;;23.13;48.64;101281.16;4998310;28;20290;-63
2023/09/16 03:29:48;;;;;;;6.00;4.47;;;;;;;23.14;48.63;101280.19;4998205;28;20279;-62
2023/09/16 03:32:13;;;;;;;5.68;3.95;;;;;;;23.13;48.23;101281.16;4997633;28;20092;-62
2023/09/16 03:34:39;;;;;;;6.30;4.30;;;;;;;23.11;48.69;101281.31;4997811;28;20026;-64
2023/09/16 03:37:04;;;;;;;6.03;4.18;;;;;;;23.13;48.69;101290.00;4997928;28;20105;-63
2023/09/16 03:39:30;;;;;;;5.68;3.95;;;;;;;23.12;48.26;101283.00;4998261;28;20035;-64
2023/09/16 03:41:55;;;;;;;7.55;3.63;;;;;;;23.11;48.38;101275.16;4997617;28;20078;-64
2023/09/16 03:44:20;;;;;;;5.85;4.05;;;;;;;23.12;48.26;101275.03;4997827;28;20120;-63
2023/09/16 03:46:46;;;;;;;6.25;4.20;;;;;;;23.12;48.71;101272.34;4997484;28;20045;-63
2023/09/16 03:49:11;;;;;;;5.90;3.78;;;;;;;23.11;48.77;101270.69;4998037;28;20045;-62
2023/09/16 03:51:38;;;;;;;6.47;4.00;;;;;;;23.10;48.57;101266.38;4997050;28;20165;-64
2023/09/16 03:54:04;;;;;;;5.85;3.90;;;;;;;23.10;48.54;101258.38;4997761;28;20042;-62
2023/09/16 03:56:30;;;;;;;7.30;3.78;;;;;;;23.09;48.67;101262.03;4997057;28;20153;-63
2023/09/16 03:58:55;;;;;;;5.93;3.70;;;;;;;23.09;48.45;101256.69;4997447;28;20113;-62
2023/09/16 04:01:21;;;;;;;6.18;3.88;;;;;;;23.10;48.08;101260.22;4997392;28;20031;-63
2023/09/16 04:03:46;;;;;;;6.03;4.03;;;;;;;23.09;48.53;101262.03;4997166;28;20402;-63
2023/09/16 04:06:11;;;;;;;6.47;4.00;;;;;;;23.09;48.47;101269.16;4997594;28;20045;-62
2023/09/16 04:08:37;;;;;;;6.95;4.20;;;;;;;23.08;48.26;101262.16;4996584;28;20112;-63
2023/09/16 04:11:02;;;;;;;5.07;3.65;;;;;;;23.08;48.14;101267.47;4997040;28;20030;-63
2023/09/16 04:13:27;;;;;;;6.03;4.13;;;;;;;23.09;48.09;101258.53;4997051;28;20057;-61
2023/09/16 04:15:54;;;;;;;6.07;4.00;;;;;;;23.08;48.19;101260.38;4997320;28;20033;-62
2023/09/16 04:18:19;;;;;;;6.10;3.80;;;;;;;23.08;48.07;101268.34;4996677;28;21066;-65
2023/09/16 04:20:47;;;;;;;6.55;3.80;;;;;;;23.08;48.52;101263.03;4987604;28;20573;-62
2023/09/16 04:23:12;;;;;;;5.65;3.80;;;;;;;23.06;48.29;101270.25;4997229;28;20046;-62
2023/09/16 04:25:38;;;;;;;6.22;3.80;;;;;;;23.07;47.95;101268.47;4997353;28;20029;-62
2023/09/16 04:28:03;;;;;;;6.00;3.90;;;;;;;23.05;47.92;101265.94;4997078;28;20423;-63
2023/09/16 04:30:29;;;;;;;6.47;3.80;;;;;;;23.05;48.27;101262.44;4997094;28;20409;-63
2023/09/16 04:32:55;;;;;;;6.13;3.92;;;;;;;23.04;48.02;101264.25;4996552;28;20121;-63
2023/09/16 04:35:20;;;;;;;6.30;3.65;;;;;;;23.05;48.34;101260.63;4996813;28;20112;-64
2023/09/16 04:37:46;;;;;;;5.55;3.70;;;;;;;23.04;47.93;101258.13;4997242;28;20041;-63
2023/09/16 04:40:11;;;;;;;6.15;3.75;;;;;;;23.05;48.18;101255.31;4996676;28;20442;-64
2023/09/16 04:42:37;;;;;;;6.15;3.60;;;;;;;23.04;48.37;101247.47;4996514;28;20474;-64
2023/09/16 04:45:06;;;;;;;5.55;3.67;;;;;;;23.03;48.36;101257.25;4996672;28;20045;-63
2023/09/16 04:47:31;;;;;;;5.82;3.50;;;;;;;23.03;47.78;101256.44;4996951;28;20041;-63
2023/09/16 04:49:57;;;;;;;8.20;3.95;;;;;;;23.02;47.92;101258.25;4997155;28;20030;-63
2023/09/16 04:52:27;;;;;;;5.85;3.95;;;;;;;23.02;48.05;101255.59;4996900;28;20042;-64
2023/09/16 04:54:53;;;;;;;5.65;3.92;;;;;;;23.01;48.31;101251.25;4996814;28;20061;-63
2023/09/16 04:57:20;;;;;;;5.43;3.65;;;;;;;23.02;47.92;101250.28;4996831;28;20037;-62
2023/09/16 04:59:45;;;;;;;6.05;3.75;;;;;;;23.02;48.33;101258.25;4997072;28;20030;-62
2023/09/16 05:02:11;;;;;;;8.68;3.90;;;;;;;23.00;48.19;101252.22;4996779;28;20045;-64
2023/09/16 05:04:37;;;;;;;5.63;3.88;;;;;;;23.01;47.98;101257.41;4999342;28;20030;-64
2023/09/16 05:07:04;;;;;;;6.20;4.03;;;;;;;23.00;48.13;101260.22;5000346;28;20038;-61
2023/09/16 05:09:30;;;;;;;6.20;4.30;;;;;;;23.00;47.73;101258.41;4990286;28;20034;-61
2023/09/16 05:11:55;;;;;;;5.82;3.70;;;;;;;23.00;48.11;101258.41;5000728;28;20030;-61
2023/09/16 05:14:21;;;;;;;6.43;3.97;;;;;;;22.99;47.93;101254.06;5000748;28;20090;-62
2023/09/16 05:16:46;;;;;;;5.97;3.95;;;;;;;22.99;47.65;101254.06;5000218;28;20022;-63
2023/09/16 05:19:11;;;;;;;8.00;4.27;;;;;;;22.98;48.26;101259.53;5000301;28;20030;-62
2023/09/16 05:21:37;;;;;;;5.90;4.30;;;;;;;23.00;48.07;101263.72;5000397;28;20348;-63
2023/09/16 05:24:02;;;;;;;6.80;4.43;;;;;;;23.01;47.96;101261.91;5000276;28;20049;-62
2023/09/16 05:26:27;;;;;;;6.90;4.00;;;;;;;22.99;48.18;101261.22;5000410;28;20455;-62
2023/09/16 05:28:53;;;;;;;6.47;4.28;;;;;;;22.99;48.19;101262.03;5000500;28;20030;-62
2023/09/16 05:31:18;;;;;;;5.80;4.20;;;;;;;22.97;48.03;101256.03;5000388;28;20492;-62
2023/09/16 05:33:43;;;;;;;7.85;4.60;;;;;;;22.96;47.58;101257.00;4997789;28;20038;-64
2023/09/16 05:36:09;;;;;;;6.00;4.13;;;;;;;22.96;48.09;101262.31;5000456;28;20026;-62
2023/09/16 05:38:34;;;;;;;6.05;4.18;;;;;;;22.99;47.68;101263.88;4999685;28;20078;-64
2023/09/16 05:41:00;;;;;;;6.20;4.18;;;;;;;22.97;47.71;101261.34;5000366;28;20391;-62
2023/09/16 05:43:25;;;;;;;6.32;4.43;;;;;;;22.96;48.15;101257.00;4999993;28;20585;-63
2023/09/16 05:45:51;;;;;;;7.32;3.78;;;;;;;22.97;48.08;101255.19;4999926;28;20376;-63
2023/09/16 05:48:18;;;;;;;5.80;4.00;;;;;;;22.95;48.23;101254.50;5000011;28;20114;-63
2023/09/16 05:50:43;;;;;;;6.82;4.10;;;;;;;22.95;48.25;101258.00;4999799;28;20030;-63
2023/09/16 05:53:08;;;;;;;5.63;3.90;;;;;;;22.97;48.20;101263.16;4999876;28;20041;-61
2023/09/16 05:55:38;;;;;;;5.50;3.97;;;;;;;22.99;48.18;101262.03;4999659;28;20760;-64
2023/09/16 05:58:06;;;;;;;5.80;3.30;;;;;;;23.04;47.90;101263.44;4999600;28;20284;-63
2023/09/16 06:00:32;;;;;;;5.47;3.53;;;;;;;23.02;48.15;101260.91;4999618;28;20030;-64
2023/09/16 06:02:57;;;;;;;5.97;3.38;;;;;;;23.03;48.35;101272.38;4999445;28;20030;-64
2023/09/16 06:05:22;;;;;;;6.43;3.90;;;;;;;23.03;48.75;101261.75;4999664;28;20034;-62
2023/09/16 06:07:48;;;;;;;5.65;4.18;;;;;;;23.00;48.34;101257.56;4999447;28;21363;-62
2023/09/16 06:10:13;;;;;;;7.07;4.10;;;;;;;22.98;48.66;101259.53;4999024;28;20035;-61
2023/09/16 06:12:38;;;;;;;7.95;3.90;;;;;;;22.98;48.87;101262.19;4999095;28;20027;-62
2023/09/16 06:15:04;;;;;;;6.67;4.20;;;;;;;22.98;48.59;101268.31;4998678;28;20041;-63
2023/09/16 06:17:29;;;;;;;6.78;4.53;;;;;;;22.98;48.67;101270.97;5014298;28;20394;-63
2023/09/16 06:19:56;;;;;;;8.75;4.15;;;;;;;23.00;48.86;101274.34;4999016;28;20125;-64
2023/09/16 06:22:22;;;;;;;10.10;4.28;;;;;;;23.00;48.83;101281.47;4998960;28;20026;-62
2023/09/16 06:24:48;;;;;;;7.50;4.05;;;;;;;23.01;49.02;101277.84;4999190;28;20074;-63
2023/09/16 06:27:14;;;;;;;8.27;4.40;;;;;;;23.00;49.24;101281.47;4997379;28;20034;-63
2023/09/16 06:29:40;;;;;;;6.30;3.70;;;;;;;22.99;49.23;101274.50;4998789;28;20508;-62
2023/09/16 06:32:07;;;;;;;5.85;3.97;;;;;;;22.98;49.34;101280.78;4998431;28;20042;-63
2023/09/16 06:34:32;;;;;;;7.82;4.60;;;;;;;22.99;48.96;101277.16;4998754;28;20121;-62
2023/09/16 06:36:59;;;;;;;8.55;4.60;;;;;;;22.98;49.41;101275.47;4998365;28;20153;-62
2023/09/16 06:39:25;;;;;;;6.70;4.05;;;;;;;22.99;49.45;101283.31;4998765;28;20026;-65
2023/09/16 06:41:50;;;;;;;10.95;4.60;;;;;;;22.99;50.25;101282.47;4998883;28;20033;-65
2023/09/16 06:44:15;;;;;;;13.23;5.97;;;;;;;23.00;51.37;101281.47;4999274;28;21040;-64
2023/09/16 06:46:43;;;;;;;8.37;5.37;;;;;;;23.03;51.57;101286.50;4998739;28;20037;-63
2023/09/16 06:49:08;;;;;;;9.48;5.22;;;;;;;23.04;51.85;101288.19;4997533;28;20632;-63
2023/09/16 06:51:33;;;;;;;10.25;5.30;;;;;;;23.04;52.56;101285.53;4996872;28;20038;-62
2023/09/16 06:53:59;;;;;;;9.65;5.13;;;;;;;23.04;52.11;101280.22;4998982;28;20038;-62
2023/09/16 06:56:24;;;;;;;10.30;4.60;;;;;;;23.06;51.83;101286.19;4998830;28;20106;-63
2023/09/16 06:58:49;;;;;;;9.70;5.00;;;;;;;23.06;52.29;101288.88;4998221;28;20034;-62
2023/09/16 07:01:15;;;;;;;8.60;5.00;;;;;;;23.06;51.98;101272.09;4998030;28;20040;-63
2023/09/16 07:03:40;;;;;;;7.85;5.22;;;;;;;23.06;51.92;101275.56;4998418;28;20026;-63
2023/09/16 07:06:05;;;;;;;8.98;5.15;;;;;;;23.04;51.58;101276.72;4998531;28;20467;-64
2023/09/16 07:08:31;;;;;;;8.05;4.68;;;;;;;23.03;52.03;101273.22;4998143;28;20479;-62
2023/09/16 07:10:56;;;;;;;9.65;6.30;;;;;;;23.01;50.99;101278.66;4998172;28;20434;-63
2023/09/16 07:13:21;;;;;;;8.90;6.03;;;;;;;23.00;50.87;101273.50;4997501;28;20471;-62
2023/09/16 07:15:53;;;;;;;7.63;4.47;;;;;;;22.98;51.30;101283.44;4996209;28;20120;-63
2023/09/16 07:18:19;;;;;;;9.57;4.85;;;;;;;23.01;51.86;101278.66;4998170;28;20042;-63
2023/09/16 07:20:44;;;;;;;9.52;4.57;;;;;;;23.03;51.92;101270.56;4997873;28;20031;-63
2023/09/16 07:23:10;;;;;;;7.85;4.10;;;;;;;23.06;52.10;101272.09;4997684;28;20054;-64
2023/09/16 07:25:35;;;;;;;7.45;3.75;;;;;;;23.05;52.02;101267.75;4998005;28;20109;-64
2023/09/16 07:28:03;;;;;;;6.88;4.25;;;;;;;23.04;52.00;101277.53;4998052;28;20509;-63
2023/09/16 07:30:28;;;;;;;9.68;4.10;;;;;;;23.06;52.25;101270.25;4997583;28;20054;-63
2023/09/16 07:32:53;;;;;;;7.38;3.72;;;;;;;23.12;52.33;101279.50;4995707;28;20085;-64
2023/09/16 07:35:19;;;;;;;8.30;3.75;;;;;;;23.17;52.49;101280.72;4997701;28;20041;-62
2023/09/16 07:37:44;;;;;;;6.65;3.88;;;;;;;23.22;52.42;101276.78;4997876;28;20533;-62
2023/09/16 07:40:10;;;;;;;7.07;3.83;;;;;;;23.26;51.95;101284.34;4998137;28;20042;-62
2023/09/16 07:42:35;;;;;;;6.40;3.90;;;;;;;23.27;52.23;101283.31;4997900;28;20030;-63
2023/09/16 07:45:02;;;;;;;8.23;4.13;;;;;;;23.31;51.80;101284.72;4997781;28;20081;-65
2023/09/16 07:47:27;;;;;;;6.75;3.88;;;;;;;23.27;51.82;101283.31;4996525;28;20037;-63
2023/09/16 07:49:52;;;;;;;7.07;3.57;;;;;;;23.30;52.00;101283.03;4997395;28;20042;-63
2023/09/16 07:52:18;;;;;;;8.63;3.93;;;;;;;23.34;52.24;101284.44;4997792;28;20402;-63
2023/09/16 07:54:43;;;;;;;8.68;4.55;;;;;;;23.37;52.27;101277.97;4997690;28;20267;-65
2023/09/16 07:57:08;;;;;;;7.57;3.90;;;;;;;23.38;51.75;101284.13;4997489;28;20034;-63
2023/09/16 07:59:34;;;;;;;6.38;3.92;;;;;;;23.40;52.02;101284.81;4997511;28;20042;-61
2023/09/16 08:01:59;;;;;;;6.78;4.07;;;;;;;23.41;51.75;101286.50;4997630;28;20026;-63
2023/09/16 08:04:24;;;;;;;6.27;3.53;;;;;;;23.43;52.11;101287.16;4996945;28;20036;-63
2023/09/16 08:06:50;;;;;;;8.10;3.73;;;;;;;23.42;52.07;101291.66;4996961;28;20660;-63
2023/09/16 08:09:16;;;;;;;5.30;3.50;;;;;;;23.38;52.23;101289.44;4997228;28;20347;-62
2023/09/16 08:11:41;;;;;;;6.15;3.72;;;;;;;23.38;52.00;101300.09;4997477;28;20065;-61
2023/09/16 08:14:07;;;;;;;7.15;3.83;;;;;;;23.40;52.12;101290.13;4997199;28;20022;-62
2023/09/16 08:16:32;;;;;;;5.93;3.53;;;;;;;23.45;52.26;101295.84;5011812;28;20029;-62
2023/09/16 08:18:57;;;;;;;5.37;3.50;;;;;;;23.46;51.91;101293.03;4996743;28;20027;-63
2023/09/16 08:21:23;;;;;;;6.80;3.67;;;;;;;23.49;52.10;101295.38;4996910;28;20264;-63
2023/09/16 08:23:48;;;;;;;6.03;3.67;;;;;;;23.51;51.88;101292.56;4997320;28;20511;-63
2023/09/16 08:26:13;;;;;;;6.93;3.92;;;;;;;23.53;51.88;101299.44;4997094;28;20113;-62
2023/09/16 08:28:39;;;;;;;6.10;3.70;;;;;;;23.55;52.36;101299.28;4997290;28;20022;-64
2023/09/16 08:31:04;;;;;;;7.13;3.35;;;;;;;23.57;52.22;101301.78;4997270;28;20046;-63
2023/09/16 08:33:29;;;;;;;7.27;3.63;;;;;;;23.56;52.21;101303.63;4995965;28;20030;-59
2023/09/16 08:35:55;;;;;;;7.35;3.80;;;;;;;23.58;52.00;101303.47;4995817;28;20267;-61
2023/09/16 08:38:20;;;;;;;6.77;3.67;;;;;;;23.59;51.97;101307.78;4996715;28;20032;-63
2023/09/16 08:40:51;;;;;;;11.60;3.90;;;;;;;23.59;51.84;101313.13;4996773;28;20262;-62
2023/09/16 08:43:25;;;;;;;5.90;3.90;;;;;;;23.58;51.97;101317.59;4997020;28;20497;-64
2023/09/16 08:46:00;;;;;;;6.63;3.75;;;;;;;23.59;52.20;101316.63;4996690;28;21072;-62
2023/09/16 08:48:26;;;;;;;6.15;3.53;;;;;;;23.61;52.20;101319.16;4996507;28;20042;-62
2023/09/16 08:50:53;;;;;;;12.52;3.38;;;;;;;23.60;52.10;101320.94;4996430;28;20471;-63
2023/09/16 08:53:19;;;;;;;6.65;3.90;;;;;;;23.58;51.87;101322.94;4996591;28;20042;-61
2023/09/16 08:55:44;;;;;;;6.55;3.47;;;;;;;23.57;52.31;101323.06;4995853;28;20092;-63
2023/09/16 08:58:10;;;;;;;6.03;3.30;;;;;;;23.49;52.48;101318.50;4996294;28;20045;-62
2023/09/16 09:00:37;;;;;;;7.32;3.33;;;;;;;23.50;52.05;101315.69;4995876;28;20080;-62
2023/09/16 09:03:02;;;;;;;6.70;3.65;;;;;;;23.55;52.49;101329.38;4996203;28;20035;-63
2023/09/16 09:05:29;;;;;;;5.95;3.22;;;;;;;23.55;52.12;101318.72;4996507;28;20033;-63
2023/09/16 09:07:54;;;;;;;7.22;3.60;;;;;;;23.55;52.44;101320.56;4996141;28;20034;-64
2023/09/16 09:10:21;;;;;;;5.80;3.30;;;;;;;23.56;52.42;101311.59;4996365;28;20032;-64
2023/09/16 09:12:46;;;;;;;5.97;3.53;;;;;;;23.58;52.27;101320.28;4996063;28;20025;-63
2023/09/16 09:15:14;;;;;;;5.95;3.45;;;;;;;23.59;52.43;101316.63;4995917;28;20037;-63
2023/09/16 09:17:44;;;;;;;7.15;3.40;;;;;;;23.60;52.73;101320.13;4995158;28;20044;-62
2023/09/16 09:20:20;;;;;;;6.65;3.78;;;;;;;23.61;52.72;101330.63;4995027;28;20513;-62
2023/09/16 09:22:48;;;;;;;6.78;3.83;;;;;;;23.61;52.17;101332.44;4995866;28;20030;-61
2023/09/16 09:25:13;;;;;;;7.63;3.72;;;;;;;23.61;52.73;101335.09;4995852;28;20022;-63
2023/09/16 09:27:39;;;;;;;7.13;3.70;;;;;;;23.57;52.48;101339.03;4994789;28;20036;-63
2023/09/16 09:30:05;;;;;;;5.93;3.85;;;;;;;23.60;52.82;101336.09;4994859;28;20234;-63
2023/09/16 09:32:31;;;;;;;6.03;3.53;;;;;;;23.61;52.44;101335.94;4994483;28;20395;-62
2023/09/16 09:35:07;;;;;;;7.20;3.47;;;;;;;23.65;52.77;101334.63;4995912;28;20034;-62
2023/09/16 09:37:33;;;;;;;6.18;3.65;;;;;;;23.65;52.47;101333.81;4993835;28;20035;-63
2023/09/16 09:40:10;;;;;;;5.95;3.20;;;;;;;23.63;52.58;101339.28;4995568;28;20033;-63
2023/09/16 09:42:43;;;;;;;5.70;3.25;;;;;;;23.65;52.73;101344.44;4994599;28;20546;-63
2023/09/16 09:45:10;;;;;;;5.45;3.20;;;;;;;23.65;52.56;101347.94;4996086;28;20085;-63
2023/09/16 09:47:37;;;;;;;5.40;3.45;;;;;;;23.64;52.43;101340.97;4995756;28;20062;-63
2023/09/16 09:50:07;;;;;;;6.43;3.70;;;;;;;23.62;52.50;101340.25;4995249;28;20039;-64
2023/09/16 09:52:34;;;;;;;6.10;3.53;;;;;;;23.63;52.69;101339.28;4999230;28;20585;-63
2023/09/16 09:55:00;;;;;;;5.47;3.35;;;;;;;23.59;52.55;101342.38;4999005;28;20109;-63
2023/09/16 09:57:30;;;;;;;5.57;3.17;;;;;;;23.58;52.82;101341.56;4997818;28;20061;-64
2023/09/16 09:59:56;;;;;;;5.88;3.17;;;;;;;23.63;53.03;101344.59;4999211;28;20458;-63
2023/09/16 10:02:26;;;;;;;6.10;3.70;;;;;;;23.63;52.58;101335.78;4999430;28;20022;-65
2023/09/16 10:04:58;;;;;;;5.57;3.03;;;;;;;23.63;52.70;101335.78;4999116;28;20030;-65
2023/09/16 10:07:25;;;;;;;5.43;3.45;;;;;;;23.64;52.58;101337.44;4999478;28;20557;-64
2023/09/16 10:09:51;;;;;;;4.80;3.08;;;;;;;23.64;52.46;101334.78;4999511;28;20069;-63
2023/09/16 10:12:17;;;;;;;6.68;3.08;;;;;;;23.60;52.94;101336.91;4999424;28;20038;-65
2023/09/16 10:14:45;;;;;;;5.95;3.40;;;;;;;23.63;52.93;101330.47;5014158;28;20491;-66
2023/09/16 10:17:10;;;;;;;5.07;3.47;;;;;;;23.65;52.37;101325.81;4999133;28;20030;-65
2023/09/16 10:19:36;;;;;;;5.10;3.30;;;;;;;23.64;52.44;101326.81;4999059;28;20049;-67
2023/09/16 10:22:01;;;;;;;5.22;3.00;;;;;;;23.63;52.80;101325.97;4999204;28;20030;-64
2023/09/16 10:24:28;;;;;;;6.05;3.08;;;;;;;23.61;52.28;101335.09;4998823;28;20065;-63
2023/09/16 10:26:57;;;;;;;5.15;3.20;;;;;;;23.58;52.55;101325.59;4999407;28;20038;-65
2023/09/16 10:29:24;;;;;;;5.03;2.85;;;;;;;23.57;52.91;101326.56;4999369;28;20033;-65
2023/09/16 10:31:51;;;;;;;5.45;3.30;;;;;;;23.55;53.01;101320.56;4989423;28;20037;-66
2023/09/16 10:34:16;;;;;;;6.25;3.40;;;;;;;23.55;52.48;101326.72;4997705;28;20398;-65
2023/09/16 10:36:42;;;;;;;5.25;3.25;;;;;;;23.56;52.97;101324.91;4997557;28;20203;-65
2023/09/16 10:39:09;;;;;;;5.55;3.03;;;;;;;23.55;53.00;101318.72;4998775;28;20034;-64
2023/09/16 10:41:35;;;;;;;5.93;3.30;;;;;;;23.53;52.69;101315.41;4999087;28;20022;-67
2023/09/16 10:44:01;;;;;;;5.88;3.50;;;;;;;23.52;52.91;101320.88;4997765;28;20447;-67
2023/09/16 10:46:29;;;;;;;5.65;3.05;;;;;;;23.53;52.66;101314.56;4998680;28;20022;-68
2023/09/16 10:48:54;;;;;;;6.22;3.22;;;;;;;23.53;52.62;101304.75;4998520;28;20121;-68
2023/09/16 10:51:23;;;;;;;4.53;2.92;;;;;;;23.52;52.77;101308.38;4998675;28;20109;-66
2023/09/16 10:53:59;;;;;;;4.88;2.90;;;;;;;23.53;52.33;101307.41;4997065;28;20051;-68
2023/09/16 10:56:33;;;;;;;4.97;2.90;;;;;;;23.53;52.38;101310.06;4998920;28;20041;-66
2023/09/16 10:59:18;;;;;;;5.07;3.00;;;;;;;23.52;52.81;101302.25;4995811;28;20029;-65
2023/09/16 11:01:59;;;;;;;5.43;2.88;;;;;;;23.50;52.65;101306.88;4998594;28;20034;-66
2023/09/16 11:04:25;;;;;;;6.70;3.08;;;;;;;23.49;52.65;101299.88;4998320;28;20557;-64
2023/09/16 11:06:53;;;;;;;4.82;2.88;;;;;;;23.48;52.61;101301.72;4998248;28;20034;-66
2023/09/16 11:09:20;;;;;;;10.65;3.88;;;;;;;23.49;53.00;101310.50;4997644;28;20059;-66
2023/09/16 11:11:47;;;;;;;5.07;3.00;;;;;;;23.49;52.47;101308.69;4998182;28;20132;-66
2023/09/16 11:14:14;;;;;;;6.55;3.05;;;;;;;23.49;52.92;101303.38;4998062;28;20037;-66
2023/09/16 11:16:49;;;;;;;6.40;3.13;;;;;;;23.47;52.88;101301.84;4998519;28;20057;-66
2023/09/16 11:19:15;;;;;;;6.75;3.20;;;;;;;23.47;52.69;101297.38;4998925;28;20381;-67
2023/09/16 11:21:43;;;;;;;7.55;3.08;;;;;;;23.47;52.69;101304.53;4997731;28;20136;-67